createdAt,value
2023-04-22T00:01:53.358Z,49.51
2023-04-22T00:04:57.517Z,49.35
2023-04-22T00:08:01.023Z,49.89
2023-04-22T00:11:03.700Z,50.09
2023-04-22T00:14:06.228Z,50.40
2023-04-22T00:17:08.818Z,50.07
2023-04-22T00:20:11.770Z,50.18
2023-04-22T00:23:14.448Z,50.27
2023-04-22T00:26:17.073Z,50.18
2023-04-22T00:29:19.802Z,50.41
2023-04-22T00:32:22.694Z,50.09
2023-04-22T00:35:25.495Z,49.87
2023-04-22T00:38:28.126Z,49.47
2023-04-22T00:41:31.299Z,49.76
2023-04-22T00:44:33.916Z,50.41
2023-04-22T00:47:36.965Z,50.18
2023-04-22T00:50:39.588Z,50.15
2023-04-22T00:53:42.215Z,49.95
2023-04-22T00:56:45.157Z,50.42
2023-04-22T00:59:48.173Z,50.41
2023-04-22T01:02:50.842Z,50.85
2023-04-22T01:05:53.861Z,51.37
2023-04-22T01:08:56.484Z,50.91
2023-04-22T01:11:59.144Z,51.22
2023-04-22T01:15:04.783Z,51.11
2023-04-22T01:18:08.021Z,51.27
2023-04-22T01:21:11.948Z,51.65
2023-04-22T01:24:14.788Z,51.05
2023-04-22T01:27:19.857Z,51.41
2023-04-22T01:30:22.444Z,51.17
2023-04-22T01:33:25.071Z,51.27
2023-04-22T01:36:27.728Z,51.51
2023-04-22T01:39:30.365Z,51.66
2023-04-22T01:42:32.994Z,51.51
2023-04-22T01:45:35.734Z,50.90
2023-04-22T01:48:38.444Z,51.69
2023-04-22T01:51:40.978Z,51.76
2023-04-22T01:54:43.516Z,52.16
2023-04-22T01:57:46.244Z,52.19
2023-04-22T02:00:48.968Z,52.62
2023-04-22T02:03:52.008Z,52.50
2023-04-22T02:06:54.380Z,53.21
2023-04-22T02:09:57.322Z,53.40
2023-04-22T02:12:59.618Z,53.37
2023-04-22T02:16:02.847Z,53.72
2023-04-22T02:19:05.602Z,53.66
2023-04-22T02:22:09.372Z,53.83
2023-04-22T02:25:12.287Z,53.42
2023-04-22T02:28:15.017Z,54.08
2023-04-22T02:31:17.772Z,54.20
2023-04-22T02:34:20.936Z,53.90
2023-04-22T02:37:23.492Z,53.98
2023-04-22T02:40:26.752Z,54.63
2023-04-22T02:43:29.370Z,54.82
2023-04-22T02:46:31.985Z,55.12
2023-04-22T02:49:34.561Z,54.68
2023-04-22T02:52:37.070Z,55.45
2023-04-22T02:55:42.755Z,55.12
2023-04-22T02:58:45.302Z,55.07
2023-04-22T03:01:48.122Z,55.10
2023-04-22T03:04:54.423Z,54.88
2023-04-22T03:07:57.502Z,55.54
2023-04-22T03:11:00.035Z,55.68
2023-04-22T03:14:02.617Z,55.99
2023-04-22T03:17:06.031Z,56.37
2023-04-22T03:20:09.082Z,55.76
2023-04-22T03:23:11.833Z,55.95
2023-04-22T03:26:14.707Z,56.15
2023-04-22T03:29:17.370Z,56.91
2023-04-22T03:32:20.100Z,56.12
2023-04-22T03:35:23.882Z,56.83
2023-04-22T03:38:27.512Z,56.67
2023-04-22T03:41:30.415Z,56.79
2023-04-22T03:44:33.136Z,56.92
2023-04-22T03:47:37.168Z,57.09
2023-04-22T03:50:42.009Z,56.70
2023-04-22T03:53:44.687Z,56.86
2023-04-22T03:56:48.116Z,56.16
2023-04-22T03:59:50.819Z,56.57
2023-04-22T04:02:53.673Z,56.05
2023-04-22T04:05:57.648Z,56.94
2023-04-22T04:09:01.637Z,57.21
2023-04-22T04:12:05.300Z,56.99
2023-04-22T04:15:08.804Z,56.60
2023-04-22T04:18:11.987Z,56.95
2023-04-22T04:21:14.393Z,56.57
2023-04-22T04:24:19.108Z,56.91
2023-04-22T04:27:23.654Z,56.89
2023-04-22T04:30:26.846Z,57.37
2023-04-22T04:33:31.913Z,57.25
2023-04-22T04:36:34.850Z,56.93
2023-04-22T04:39:38.345Z,57.83
2023-04-22T04:42:42.450Z,57.74
2023-04-22T04:45:48.483Z,57.92
2023-04-22T04:48:54.048Z,57.77
2023-04-22T04:51:57.808Z,56.66
2023-04-22T04:55:01.786Z,56.72
2023-04-22T04:58:06.082Z,56.91
2023-04-22T05:01:09.049Z,56.69
2023-04-22T05:04:12.173Z,57.01
2023-04-22T05:07:15.401Z,57.09
2023-04-22T05:10:17.910Z,56.96
2023-04-22T05:13:22.334Z,56.24
2023-04-22T05:16:24.837Z,56.44
2023-04-22T05:19:27.896Z,56.66
2023-04-22T05:22:30.535Z,56.92
2023-04-22T05:25:34.161Z,55.84
2023-04-22T05:28:38.076Z,56.12
2023-04-22T05:31:41.187Z,56.07
2023-04-22T05:34:43.567Z,55.84
2023-04-22T05:37:47.516Z,54.86
2023-04-22T05:40:49.937Z,55.56
2023-04-22T05:43:52.882Z,53.92
2023-04-22T05:46:55.530Z,53.67
2023-04-22T05:49:59.843Z,54.35
2023-04-22T05:53:02.778Z,55.08
2023-04-22T05:56:05.829Z,54.36
2023-04-22T05:59:08.698Z,53.74
2023-04-22T06:02:11.720Z,54.47
2023-04-22T06:05:16.378Z,54.43
2023-04-22T06:08:19.689Z,52.51
2023-04-22T06:11:22.481Z,51.59
2023-04-22T06:14:25.057Z,50.89
2023-04-22T06:17:27.972Z,50.86
2023-04-22T06:20:32.806Z,50.42
2023-04-22T06:23:35.472Z,50.96
2023-04-22T06:26:38.294Z,50.05
2023-04-22T06:29:41.308Z,49.20
2023-04-22T06:32:44.219Z,48.62
2023-04-22T06:35:46.893Z,48.75
2023-04-22T06:38:49.560Z,46.53
2023-04-22T06:41:53.014Z,47.41
2023-04-22T06:44:56.607Z,45.63
2023-04-22T06:47:59.368Z,46.17
2023-04-22T06:51:02.834Z,44.94
2023-04-22T06:54:05.940Z,45.33
2023-04-22T06:57:08.470Z,44.37
2023-04-22T07:00:11.663Z,45.81
2023-04-22T07:03:14.724Z,43.39
2023-04-22T07:06:18.389Z,40.65
2023-04-22T07:09:21.387Z,42.58
2023-04-22T07:12:25.762Z,40.95
2023-04-22T07:15:28.364Z,40.14
2023-04-22T07:18:30.926Z,36.33
2023-04-22T07:21:33.691Z,38.34
2023-04-22T07:24:36.288Z,37.46
2023-04-22T07:27:38.935Z,39.38
2023-04-22T07:30:41.732Z,35.03
2023-04-22T07:33:44.414Z,36.04
2023-04-22T07:36:47.045Z,35.50
2023-04-22T07:39:49.579Z,33.30
2023-04-22T07:42:52.182Z,35.20
2023-04-22T07:45:54.879Z,31.83
2023-04-22T07:48:57.623Z,30.54
2023-04-22T07:52:00.336Z,31.15
2023-04-22T07:55:02.982Z,33.47
2023-04-22T07:58:06.708Z,31.16
2023-04-22T08:01:09.567Z,29.54
2023-04-22T08:04:12.978Z,30.60
2023-04-22T08:07:30.914Z,29.43
2023-04-22T08:10:36.083Z,29.78
2023-04-22T08:13:38.342Z,29.08
2023-04-22T08:16:41.929Z,27.91
2023-04-22T08:19:45.545Z,27.24
2023-04-22T08:22:50.589Z,24.58
2023-04-22T08:25:52.970Z,25.93
2023-04-22T08:28:56.059Z,26.31
2023-04-22T08:31:58.452Z,22.17
2023-04-22T08:35:05.006Z,22.30
2023-04-22T08:38:07.958Z,22.22
2023-04-22T08:41:10.889Z,22.27
2023-04-22T08:44:14.444Z,20.43
2023-04-22T08:47:18.437Z,20.57
2023-04-22T08:50:24.319Z,19.87
2023-04-22T08:53:27.444Z,21.29
2023-04-22T08:56:30.317Z,19.79
2023-04-22T08:59:33.963Z,21.66
2023-04-22T09:02:37.183Z,19.43
2023-04-22T09:05:40.820Z,21.98
2023-04-22T09:08:43.267Z,20.91
2023-04-22T09:11:46.135Z,21.08
2023-04-22T09:14:48.484Z,22.16
2023-04-22T09:17:51.892Z,22.17
2023-04-22T09:20:55.340Z,21.50
2023-04-22T09:24:00.493Z,20.94
2023-04-22T09:27:03.609Z,19.68
2023-04-22T09:30:08.344Z,20.36
2023-04-22T09:33:10.935Z,18.27
2023-04-22T09:36:13.880Z,17.32
2023-04-22T09:39:16.215Z,17.63
2023-04-22T09:42:19.512Z,20.15
2023-04-22T09:45:29.456Z,20.20
2023-04-22T09:48:32.330Z,18.86
2023-04-22T09:51:34.686Z,17.92
2023-04-22T09:54:37.570Z,18.07
2023-04-22T09:57:39.851Z,18.65
2023-04-22T10:00:50.581Z,17.32
2023-04-22T10:03:53.479Z,17.28
2023-04-22T10:06:56.943Z,16.53
2023-04-22T10:09:59.514Z,16.33
2023-04-22T10:13:04.410Z,19.51
2023-04-22T10:16:07.118Z,17.33
2023-04-22T10:19:11.219Z,19.30
2023-04-22T10:22:14.152Z,17.39
2023-04-22T10:25:26.373Z,17.14
2023-04-22T10:28:29.549Z,16.45
2023-04-22T10:31:32.485Z,19.74
2023-04-22T10:34:36.488Z,20.59
2023-04-22T10:37:42.885Z,21.65
2023-04-22T10:41:00.923Z,20.83
2023-04-22T10:44:06.956Z,19.82
2023-04-22T10:47:09.735Z,20.03
2023-04-22T10:50:13.978Z,19.97
2023-04-22T10:53:35.551Z,16.65
2023-04-22T10:56:58.541Z,18.39
2023-04-22T11:00:01.290Z,15.79
2023-04-22T11:03:11.281Z,17.60
2023-04-22T11:06:15.910Z,19.82
2023-04-22T11:09:18.690Z,20.07
2023-04-22T11:12:39.735Z,20.75
2023-04-22T11:15:44.113Z,20.95
2023-04-22T11:18:47.910Z,21.33
2023-04-22T11:21:51.311Z,21.11
2023-04-22T11:24:57.547Z,22.53
2023-04-22T11:28:00.360Z,22.21
2023-04-22T11:31:06.856Z,21.35
2023-04-22T11:34:09.582Z,22.99
2023-04-22T11:37:12.662Z,21.08
2023-04-22T11:40:29.973Z,21.62
2023-04-22T11:43:33.745Z,24.43
2023-04-22T11:46:39.574Z,22.13
2023-04-22T11:49:42.321Z,26.57
2023-04-22T11:52:58.964Z,21.63
2023-04-22T11:56:03.727Z,22.44
2023-04-22T11:59:07.549Z,23.63
2023-04-22T12:02:11.643Z,23.13
2023-04-22T12:05:14.744Z,21.50
2023-04-22T12:08:21.506Z,20.62
2023-04-22T12:11:26.089Z,23.37
2023-04-22T12:14:35.150Z,22.02
2023-04-22T12:17:38.471Z,22.93
2023-04-22T12:20:42.014Z,24.02
2023-04-22T12:23:45.888Z,23.19
2023-04-22T12:26:48.196Z,21.93
2023-04-22T12:29:55.180Z,22.65
2023-04-22T12:32:57.536Z,21.43
2023-04-22T12:36:00.554Z,20.27
2023-04-22T12:39:03.924Z,20.28
2023-04-22T12:42:07.213Z,21.82
2023-04-22T12:45:09.740Z,21.14
2023-04-22T12:48:12.672Z,21.55
2023-04-22T12:51:14.936Z,25.71
2023-04-22T12:54:18.975Z,26.12
2023-04-22T12:57:21.288Z,24.20
2023-04-22T13:00:24.618Z,24.30
2023-04-22T13:03:27.122Z,21.38
2023-04-22T13:06:31.348Z,21.67
2023-04-22T13:09:33.743Z,21.59
2023-04-22T13:12:38.551Z,19.54
2023-04-22T13:15:41.455Z,20.03
2023-04-22T13:18:44.292Z,20.99
2023-04-22T13:21:47.541Z,19.97
2023-04-22T13:24:50.496Z,19.20
2023-04-22T13:27:52.799Z,18.73
2023-04-22T13:30:55.860Z,19.48
2023-04-22T13:33:58.259Z,19.17
2023-04-22T13:37:01.170Z,19.73
2023-04-22T13:40:05.770Z,20.69
2023-04-22T13:43:09.250Z,21.58
2023-04-22T13:46:11.565Z,22.82
2023-04-22T13:49:14.503Z,22.48
2023-04-22T13:52:16.792Z,22.42
2023-04-22T13:55:19.732Z,21.46
2023-04-22T13:58:22.328Z,21.76
2023-04-22T14:01:25.380Z,21.69
2023-04-22T14:04:29.629Z,21.64
2023-04-22T14:07:32.212Z,22.40
2023-04-22T14:10:34.912Z,22.73
2023-04-22T14:13:37.803Z,24.32
2023-04-22T14:16:40.470Z,22.34
2023-04-22T14:19:45.229Z,22.76
2023-04-22T14:22:47.796Z,23.26
2023-04-22T14:25:50.392Z,23.64
2023-04-22T14:28:53.040Z,23.82
2023-04-22T14:31:57.431Z,23.71
2023-04-22T14:35:00.078Z,26.58
2023-04-22T14:38:03.856Z,23.61
2023-04-22T14:41:06.636Z,23.40
2023-04-22T14:44:09.309Z,24.51
2023-04-22T14:47:11.888Z,27.32
2023-04-22T14:50:14.467Z,25.21
2023-04-22T14:53:17.037Z,23.77
2023-04-22T14:56:19.597Z,24.54
2023-04-22T14:59:22.688Z,23.96
2023-04-22T15:02:25.561Z,24.09
2023-04-22T15:05:28.406Z,26.24
2023-04-22T15:08:31.059Z,24.81
2023-04-22T15:11:33.686Z,24.42
2023-04-22T15:14:36.468Z,24.67
2023-04-22T15:17:39.339Z,26.12
2023-04-22T15:20:42.005Z,25.29
2023-04-22T15:23:44.600Z,25.59
2023-04-22T15:26:48.486Z,25.24
2023-04-22T15:29:51.462Z,26.62
2023-04-22T15:32:54.165Z,25.89
2023-04-22T15:35:56.829Z,26.42
2023-04-22T15:38:59.651Z,24.74
2023-04-22T15:42:02.791Z,25.64
2023-04-22T15:45:05.954Z,25.06
2023-04-22T15:48:08.808Z,25.03
2023-04-22T15:51:11.639Z,27.52
2023-04-22T15:54:14.216Z,25.36
2023-04-22T15:57:16.789Z,27.31
2023-04-22T16:00:19.455Z,27.13
2023-04-22T16:03:22.123Z,25.29
2023-04-22T16:06:25.346Z,26.23
2023-04-22T16:09:27.929Z,27.33
2023-04-22T16:12:32.758Z,27.57
2023-04-22T16:15:36.994Z,27.51
2023-04-22T16:18:41.405Z,28.16
2023-04-22T16:21:46.098Z,27.58
2023-04-22T16:24:48.678Z,26.69
2023-04-22T16:27:51.300Z,27.78
2023-04-22T16:30:54.258Z,28.22
2023-04-22T16:33:56.998Z,28.80
2023-04-22T16:36:59.633Z,27.24
2023-04-22T16:40:02.805Z,27.76
2023-04-22T16:43:05.890Z,27.81
2023-04-22T16:46:08.584Z,27.92
2023-04-22T16:49:11.774Z,28.11
2023-04-22T16:52:14.439Z,30.41
2023-04-22T16:55:17.117Z,30.10
2023-04-22T16:58:19.677Z,29.15
2023-04-22T17:01:23.808Z,29.18
2023-04-22T17:04:26.613Z,28.73
2023-04-22T17:07:30.360Z,29.60
2023-04-22T17:10:33.003Z,30.29
2023-04-22T17:13:35.918Z,29.95
2023-04-22T17:16:38.477Z,29.97
2023-04-22T17:19:43.004Z,29.35
2023-04-22T17:22:46.538Z,29.12
2023-04-22T17:25:49.446Z,28.53
2023-04-22T17:28:52.045Z,29.06
2023-04-22T17:31:54.691Z,28.95
2023-04-22T17:34:57.703Z,30.34
2023-04-22T17:38:00.286Z,29.70
2023-04-22T17:41:03.141Z,30.10
2023-04-22T17:44:07.517Z,30.30
2023-04-22T17:47:10.347Z,32.06
2023-04-22T17:50:13.018Z,31.71
2023-04-22T17:53:15.669Z,32.38
2023-04-22T17:56:18.347Z,32.03
2023-04-22T17:59:20.956Z,31.94
2023-04-22T18:02:25.177Z,31.06
2023-04-22T18:05:28.288Z,32.49
2023-04-22T18:08:31.052Z,32.35
2023-04-22T18:11:34.168Z,32.66
2023-04-22T18:14:36.642Z,33.00
2023-04-22T18:17:39.550Z,30.66
2023-04-22T18:20:42.767Z,31.30
2023-04-22T18:23:45.718Z,33.36
2023-04-22T18:26:49.288Z,33.72
2023-04-22T18:29:52.234Z,33.14
2023-04-22T18:32:54.618Z,33.58
2023-04-22T18:36:00.041Z,34.80
2023-04-22T18:39:04.633Z,33.97
2023-04-22T18:42:07.594Z,34.94
2023-04-22T18:45:10.508Z,32.40
2023-04-22T18:48:13.422Z,34.51
2023-04-22T18:51:15.867Z,34.65
2023-04-22T18:54:18.830Z,34.92
2023-04-22T18:57:21.404Z,34.34
2023-04-22T19:00:24.394Z,33.28
2023-04-22T19:03:26.897Z,33.94
2023-04-22T19:06:30.019Z,33.27
2023-04-22T19:09:32.449Z,35.28
2023-04-22T19:12:35.696Z,33.06
2023-04-22T19:15:38.097Z,35.08
2023-04-22T19:18:41.270Z,36.50
2023-04-22T19:21:43.893Z,33.06
2023-04-22T19:24:46.976Z,34.71
2023-04-22T19:27:49.297Z,33.23
2023-04-22T19:30:52.322Z,34.64
2023-04-22T19:33:54.751Z,35.55
2023-04-22T19:36:57.680Z,33.64
2023-04-22T19:40:00.357Z,35.06
2023-04-22T19:43:03.876Z,34.48
2023-04-22T19:46:06.839Z,35.99
2023-04-22T19:49:09.884Z,36.48
2023-04-22T19:52:15.503Z,37.01
2023-04-22T19:55:18.881Z,36.97
2023-04-22T19:58:21.795Z,35.48
2023-04-22T20:01:25.014Z,35.62
2023-04-22T20:04:28.054Z,34.97
2023-04-22T20:07:32.827Z,36.59
2023-04-22T20:10:36.352Z,35.39
2023-04-22T20:13:40.816Z,36.43
2023-04-22T20:16:44.952Z,37.33
2023-04-22T20:19:49.807Z,35.90
2023-04-22T20:22:53.804Z,37.17
2023-04-22T20:25:57.911Z,35.64
2023-04-22T20:29:00.883Z,37.44
2023-04-22T20:32:05.143Z,36.38
2023-04-22T20:35:11.508Z,36.77
2023-04-22T20:38:15.155Z,36.20
2023-04-22T20:41:20.790Z,36.57
2023-04-22T20:44:23.415Z,35.99
2023-04-22T20:47:27.179Z,37.58
2023-04-22T20:50:33.437Z,36.79
2023-04-22T20:53:36.334Z,37.82
2023-04-22T20:56:39.064Z,36.47
2023-04-22T20:59:41.651Z,37.82
2023-04-22T21:02:44.461Z,38.06
2023-04-22T21:05:47.255Z,38.77
2023-04-22T21:08:50.666Z,38.59
2023-04-22T21:11:54.715Z,37.59
2023-04-22T21:14:57.534Z,37.54
2023-04-22T21:18:02.978Z,37.45
2023-04-22T21:21:06.871Z,38.50
2023-04-22T21:24:10.034Z,39.17
2023-04-22T21:27:12.823Z,37.75
2023-04-22T21:30:15.697Z,36.84
2023-04-22T21:33:18.251Z,37.63
2023-04-22T21:36:22.583Z,38.61
2023-04-22T21:39:25.344Z,39.20
2023-04-22T21:42:27.989Z,37.25
2023-04-22T21:45:31.253Z,38.65
2023-04-22T21:48:33.827Z,39.53
2023-04-22T21:51:36.551Z,39.66
2023-04-22T21:54:39.432Z,38.29
2023-04-22T21:57:42.263Z,38.81
2023-04-22T22:00:45.098Z,39.45
2023-04-22T22:03:48.126Z,39.68
2023-04-22T22:06:50.523Z,39.84
2023-04-22T22:09:53.336Z,40.29
2023-04-22T22:12:55.786Z,40.42
2023-04-22T22:15:59.435Z,40.52
2023-04-22T22:19:04.442Z,40.71
2023-04-22T22:22:07.697Z,40.78
2023-04-22T22:25:11.613Z,41.41
2023-04-22T22:28:14.776Z,41.37
2023-04-22T22:31:17.079Z,41.32
2023-04-22T22:34:20.027Z,41.42
2023-04-22T22:37:22.372Z,41.21
2023-04-22T22:40:25.230Z,41.70
2023-04-22T22:43:27.548Z,41.82
2023-04-22T22:46:30.617Z,41.72
2023-04-22T22:49:33.321Z,41.65
2023-04-22T22:52:36.575Z,42.16
2023-04-22T22:55:38.907Z,42.04
2023-04-22T22:58:42.039Z,42.00
2023-04-22T23:01:44.483Z,42.10
2023-04-22T23:04:47.466Z,42.62
2023-04-22T23:07:49.816Z,42.43
2023-04-22T23:10:52.621Z,42.45
2023-04-22T23:13:54.967Z,42.78
2023-04-22T23:16:57.873Z,43.04
2023-04-22T23:20:01.334Z,42.72
2023-04-22T23:23:04.616Z,42.83
2023-04-22T23:26:07.035Z,42.86
2023-04-22T23:29:10.105Z,42.77
2023-04-22T23:32:15.010Z,42.99
2023-04-22T23:35:18.848Z,42.91
2023-04-22T23:38:21.430Z,43.18
2023-04-22T23:41:24.398Z,43.70
2023-04-22T23:44:26.648Z,43.97
2023-04-22T23:47:31.366Z,44.10
2023-04-22T23:50:33.696Z,43.89
2023-04-22T23:53:36.573Z,43.84
2023-04-22T23:56:39.076Z,43.97
2023-04-22T23:59:44.370Z,44.04
